Time;durP1;ratioP1;P1;durP2;ratioP2;P2;SDS_P1;SDS_P2;PMS_P1;PMS_P2;Temp;Humidity;BMP_temperature;BMP_pressure;BME280_temperature;BME280_humidity;BME280_pressure;Samples;Min_cycle;Max_cycle;Signal;HPM_P1;HPM_P2
2023/12/06 00:00:24;;;;;;;32.97;15.07;;;;;;;;;;5055662;28;20474;-65
2023/12/06 00:02:51;;;;;;;29.37;14.87;;;;;;;;;;5055380;28;20423;-65
2023/12/06 00:05:18;;;;;;;31.40;16.33;;;;;;;;;;5055327;28;20436;-65
2023/12/06 00:07:44;;;;;;;31.20;14.87;;;;;;;;;;5039208;28;20449;-65
2023/12/06 00:10:11;;;;;;;32.60;14.23;;;;;;;;;;5072661;28;20456;-65
2023/12/06 00:12:38;;;;;;;31.77;15.83;;;;;;;;;;5038754;28;20440;-65
2023/12/06 00:15:05;;;;;;;31.73;15.80;;;;;;;;;;5055305;28;20798;-65
2023/12/06 00:17:32;;;;;;;34.37;15.10;;;;;;;;;;5072501;28;20436;-65
2023/12/06 00:19:59;;;;;;;32.33;16.17;;;;;;;;;;5038831;28;20463;-65
2023/12/06 00:22:26;;;;;;;34.53;16.80;;;;;;;;;;5073755;28;20492;-65
2023/12/06 00:24:53;;;;;;;33.90;16.37;;;;;;;;;;5071829;28;20426;-65
2023/12/06 00:27:20;;;;;;;32.20;16.43;;;;;;;;;;5055443;28;20424;-65
2023/12/06 00:29:47;;;;;;;34.63;15.57;;;;;;;;;;5073143;28;20418;-65
2023/12/06 00:32:14;;;;;;;34.60;16.07;;;;;;;;;;5038820;28;20452;-65
2023/12/06 00:34:40;;;;;;;35.43;15.50;;;;;;;;;;5073041;28;20426;-65
2023/12/06 00:37:07;;;;;;;32.37;16.00;;;;;;;;;;5055553;28;20976;-65
2023/12/06 00:39:34;;;;;;;33.13;16.50;;;;;;;;;;5039307;28;20450;-65
2023/12/06 00:42:01;;;;;;;34.97;15.93;;;;;;;;;;5055941;28;20448;-65
2023/12/06 00:44:27;;;;;;;35.27;17.13;;;;;;;;;;5058931;28;20802;-65
2023/12/06 00:46:54;;;;;;;32.00;15.77;;;;;;;;;;5058471;28;20430;-65
2023/12/06 00:49:20;;;;;;;34.33;15.77;;;;;;;;;;5042445;28;20419;-65
2023/12/06 00:51:47;;;;;;;32.20;16.23;;;;;;;;;;5058223;28;20467;-65
2023/12/06 00:54:14;;;;;;;32.67;15.10;;;;;;;;;;5058542;28;20455;-65
2023/12/06 00:56:41;;;;;;;37.97;15.43;;;;;;;;;;5058272;28;20484;-65
2023/12/06 00:59:25;;;;;;;33.97;15.53;;;;;;;;;;5075264;28;20404;-65
2023/12/06 01:01:51;;;;;;;32.33;16.17;;;;;;;;;;5025290;28;20420;-65
2023/12/06 01:04:18;;;;;;;34.03;16.30;;;;;;;;;;5042241;28;20826;-65
2023/12/06 01:06:45;;;;;;;36.07;16.00;;;;;;;;;;5058159;28;20413;-65
2023/12/06 01:09:12;;;;;;;34.27;16.57;;;;;;;;;;5041625;28;20433;-65
2023/12/06 01:11:39;;;;;;;31.33;15.70;;;;;;;;;;5058131;28;20787;-64
2023/12/06 01:49:28;;;;;;;34.20;15.10;;;;;;;;;;5075048;28;20688;-66
2023/12/06 01:51:54;;;;;;;33.63;16.73;;;;;;;;;;5040850;28;20475;-66
2023/12/06 01:54:26;;;;;;;36.00;16.43;;;;;;;;;;5074674;28;20425;-65
2023/12/06 01:56:53;;;;;;;30.50;15.73;;;;;;;;;;5041279;28;20896;-66
2023/12/06 01:59:20;;;;;;;28.93;15.50;;;;;;;;;;5075445;28;20510;-65
2023/12/06 02:01:47;;;;;;;35.33;16.93;;;;;;;;;;5058113;28;20487;-65
2023/12/06 02:04:16;;;;;;;38.20;16.60;;;;;;;;;;5041359;28;20425;-65
2023/12/06 02:06:42;;;;;;;32.97;15.83;;;;;;;;;;5024315;28;20912;-65
2023/12/06 02:09:11;;;;;;;35.93;16.53;;;;;;;;;;5057103;28;20915;-65
2023/12/06 02:11:38;;;;;;;35.60;16.07;;;;;;;;;;5040506;28;20512;-65
2023/12/06 02:14:05;;;;;;;32.27;16.30;;;;;;;;;;5074752;28;20474;-65
2023/12/06 02:16:34;;;;;;;32.83;16.70;;;;;;;;;;5056810;28;20816;-65
2023/12/06 02:19:01;;;;;;;33.57;15.87;;;;;;;;;;5056910;28;20440;-66
2023/12/06 02:21:28;;;;;;;32.33;16.47;;;;;;;;;;5056669;28;20416;-66
2023/12/06 02:23:55;;;;;;;34.10;16.10;;;;;;;;;;5056882;28;20423;-65
2023/12/06 02:26:21;;;;;;;38.83;18.27;;;;;;;;;;5057098;28;20435;-65
2023/12/06 02:28:57;;;;;;;37.50;16.83;;;;;;;;;;5041175;28;20425;-65
2023/12/06 02:31:24;;;;;;;34.93;16.47;;;;;;;;;;5057005;28;20443;-65
2023/12/06 02:33:50;;;;;;;33.90;17.17;;;;;;;;;;5056766;28;20412;-65
2023/12/06 02:36:17;;;;;;;33.70;17.03;;;;;;;;;;5074443;28;20462;-65
2023/12/06 02:38:44;;;;;;;36.50;17.00;;;;;;;;;;5057336;28;20922;-65
2023/12/06 02:41:11;;;;;;;37.87;18.57;;;;;;;;;;5040252;28;20440;-65
2023/12/06 02:43:38;;;;;;;33.63;16.20;;;;;;;;;;5056681;28;20446;-65
2023/12/06 02:46:06;;;;;;;35.80;15.90;;;;;;;;;;5039736;28;20506;-65
2023/12/06 02:48:33;;;;;;;32.47;16.00;;;;;;;;;;5056694;28;20469;-65
2023/12/06 02:51:00;;;;;;;35.67;16.87;;;;;;;;;;5073084;28;20938;-65
2023/12/06 02:53:26;;;;;;;35.73;16.50;;;;;;;;;;5056142;28;20903;-65
2023/12/06 02:55:54;;;;;;;35.70;17.33;;;;;;;;;;5040034;28;20930;-65
2023/12/06 02:58:20;;;;;;;36.73;17.40;;;;;;;;;;5073838;28;20753;-65
2023/12/06 03:00:47;;;;;;;33.93;16.40;;;;;;;;;;5055971;28;20545;-65
2023/12/06 03:03:31;;;;;;;37.30;18.37;;;;;;;;;;5041955;28;20487;-65
2023/12/06 03:05:58;;;;;;;38.57;17.93;;;;;;;;;;5073074;28;20524;-65
2023/12/06 03:08:25;;;;;;;39.23;17.67;;;;;;;;;;5023846;28;20835;-65
2023/12/06 03:10:52;;;;;;;40.00;17.67;;;;;;;;;;5055606;28;20448;-65
2023/12/06 03:13:19;;;;;;;35.70;16.70;;;;;;;;;;5073826;28;20535;-65
2023/12/06 03:15:45;;;;;;;34.33;16.17;;;;;;;;;;5073568;28;20434;-65
2023/12/06 03:18:12;;;;;;;33.37;16.40;;;;;;;;;;5055872;28;20437;-65
2023/12/06 03:20:39;;;;;;;33.83;15.47;;;;;;;;;;5055909;28;20765;-65
2023/12/06 03:23:06;;;;;;;37.20;17.27;;;;;;;;;;5039125;28;20771;-65
2023/12/06 03:25:33;;;;;;;35.27;18.20;;;;;;;;;;5055593;28;20428;-65
2023/12/06 03:28:00;;;;;;;40.30;18.73;;;;;;;;;;5040080;28;20417;-65
2023/12/06 03:30:26;;;;;;;46.00;19.73;;;;;;;;;;5073576;28;20424;-65
2023/12/06 03:33:02;;;;;;;41.73;19.00;;;;;;;;;;5057487;28;20459;-65
2023/12/06 03:35:29;;;;;;;45.40;21.87;;;;;;;;;;5073619;28;20419;-66
2023/12/06 03:37:56;;;;;;;44.17;18.07;;;;;;;;;;5055591;28;20427;-65
2023/12/06 03:40:22;;;;;;;51.83;21.27;;;;;;;;;;5073829;28;20418;-66
2023/12/06 03:42:50;;;;;;;50.80;21.10;;;;;;;;;;5056129;28;20819;-66
2023/12/06 03:45:17;;;;;;;47.73;20.53;;;;;;;;;;5072482;28;20769;-66
2023/12/06 03:47:45;;;;;;;50.70;21.90;;;;;;;;;;5073115;28;20798;-66
2023/12/06 03:50:29;;;;;;;47.03;21.43;;;;;;;;;;5041943;28;20439;-66
2023/12/06 03:52:56;;;;;;;50.10;21.07;;;;;;;;;;5056430;28;20482;-66
2023/12/06 03:55:24;;;;;;;43.83;19.93;;;;;;;;;;5072283;28;20510;-66
2023/12/06 03:57:50;;;;;;;49.37;21.00;;;;;;;;;;5055682;28;20407;-65
2023/12/06 04:00:17;;;;;;;49.30;21.70;;;;;;;;;;5055891;28;20913;-65
2023/12/06 04:02:44;;;;;;;54.00;22.23;;;;;;;;;;5055644;28;20425;-65
2023/12/06 04:05:10;;;;;;;45.20;19.70;;;;;;;;;;5073128;28;20463;-66
2023/12/06 04:07:38;;;;;;;48.80;20.67;;;;;;;;;;5039592;28;20429;-65
2023/12/06 04:10:05;;;;;;;52.17;22.70;;;;;;;;;;5055455;28;20462;-66
2023/12/06 04:12:32;;;;;;;47.77;21.23;;;;;;;;;;5055375;28;20551;-66
2023/12/06 04:14:59;;;;;;;50.67;20.17;;;;;;;;;;5072892;28;20854;-66
2023/12/06 04:17:43;;;;;;;48.30;20.30;;;;;;;;;;5060971;28;20474;-65
2023/12/06 04:20:15;;;;;;;45.57;19.90;;;;;;;;;;5042833;28;20770;-65
2023/12/06 04:22:45;;;;;;;50.03;19.20;;;;;;;;;;5075923;28;20440;-65
2023/12/06 04:25:14;;;;;;;57.37;20.30;;;;;;;;;;5059186;28;20485;-68
2023/12/06 04:27:43;;;;;;;49.13;21.27;;;;;;;;;;5059498;28;20976;-68
2023/12/06 04:30:16;;;;;;;44.43;19.53;;;;;;;;;;5060000;28;20408;-66
2023/12/06 04:32:47;;;;;;;45.47;18.93;;;;;;;;;;5059893;28;20807;-64
2023/12/06 04:35:15;;;;;;;46.37;19.93;;;;;;;;;;5076488;28;20423;-68
2023/12/06 04:37:44;;;;;;;56.63;22.20;;;;;;;;;;5042978;28;20419;-69
2023/12/06 04:40:12;;;;;;;53.10;20.93;;;;;;;;;;5075419;28;20451;-68
2023/12/06 04:42:40;;;;;;;46.73;20.17;;;;;;;;;;5042895;28;20409;-68
2023/12/06 04:45:07;;;;;;;46.90;19.20;;;;;;;;;;5076511;28;20839;-68
2023/12/06 04:47:35;;;;;;;41.77;18.97;;;;;;;;;;5058437;28;20447;-67
2023/12/06 04:50:06;;;;;;;43.53;19.50;;;;;;;;;;5059738;28;20450;-68
2023/12/06 04:52:33;;;;;;;49.10;21.13;;;;;;;;;;5042652;28;20549;-67
2023/12/06 04:55:04;;;;;;;48.83;20.67;;;;;;;;;;5058649;28;20816;-67
2023/12/06 04:57:32;;;;;;;47.83;21.10;;;;;;;;;;5059266;28;20400;-68
2023/12/06 05:00:00;;;;;;;49.50;20.67;;;;;;;;;;5076646;28;20801;-67
2023/12/06 05:02:27;;;;;;;51.43;22.53;;;;;;;;;;5058568;28;20427;-67
2023/12/06 05:04:54;;;;;;;47.20;20.17;;;;;;;;;;5076272;28;20426;-67
2023/12/06 05:07:22;;;;;;;43.93;19.63;;;;;;;;;;5058327;28;20498;-68
2023/12/06 05:09:52;;;;;;;48.30;21.73;;;;;;;;;;5055216;28;20477;-68
2023/12/06 05:12:20;;;;;;;52.33;22.13;;;;;;;;;;5071419;28;20527;-69
2023/12/06 05:14:47;;;;;;;44.43;19.70;;;;;;;;;;5070828;28;20932;-68
2023/12/06 05:17:14;;;;;;;50.33;19.87;;;;;;;;;;5054756;28;20447;-68
2023/12/06 05:19:42;;;;;;;52.77;21.03;;;;;;;;;;5071394;28;20433;-67
2023/12/06 05:22:09;;;;;;;48.77;20.43;;;;;;;;;;5054246;28;20436;-67
2023/12/06 05:24:36;;;;;;;40.50;18.47;;;;;;;;;;5056143;28;20520;-66
2023/12/06 05:27:04;;;;;;;53.33;22.93;;;;;;;;;;5055486;28;20721;-66
2023/12/06 05:29:32;;;;;;;47.47;21.07;;;;;;;;;;5070099;28;20439;-67
2023/12/06 05:31:59;;;;;;;45.20;19.80;;;;;;;;;;5054378;28;20548;-66
2023/12/06 05:34:26;;;;;;;45.83;19.67;;;;;;;;;;5070391;28;20520;-65
2023/12/06 05:36:57;;;;;;;43.40;19.47;;;;;;;;;;5071030;28;20427;-65
2023/12/06 05:39:28;;;;;;;46.53;19.00;;;;;;;;;;5070570;28;20952;-65
2023/12/06 05:41:55;;;;;;;46.33;19.00;;;;;;;;;;5055489;28;20486;-65
2023/12/06 05:44:22;;;;;;;49.73;21.00;;;;;;;;;;5053478;28;20440;-65
2023/12/06 05:46:49;;;;;;;49.33;20.20;;;;;;;;;;5070759;28;20933;-65
2023/12/06 05:49:17;;;;;;;49.30;21.20;;;;;;;;;;5070905;28;20516;-65
2023/12/06 05:51:45;;;;;;;45.63;21.13;;;;;;;;;;5070845;28;20461;-67
2023/12/06 05:54:14;;;;;;;54.37;21.10;;;;;;;;;;5070538;28;20425;-67
2023/12/06 05:56:42;;;;;;;52.83;21.77;;;;;;;;;;5070366;28;20417;-67
2023/12/06 05:59:09;;;;;;;48.23;21.63;;;;;;;;;;5070772;28;20483;-67
2023/12/06 06:01:36;;;;;;;53.80;21.30;;;;;;;;;;5055536;28;20426;-67
2023/12/06 06:04:07;;;;;;;47.63;20.30;;;;;;;;;;5070260;28;20505;-67
2023/12/06 06:06:34;;;;;;;50.43;23.03;;;;;;;;;;5054315;28;20751;-67
2023/12/06 06:09:02;;;;;;;50.63;21.53;;;;;;;;;;5053546;28;20788;-67
2023/12/06 06:11:29;;;;;;;48.03;20.50;;;;;;;;;;5072701;28;20860;-68
2023/12/06 06:13:57;;;;;;;51.00;21.03;;;;;;;;;;5075538;28;20439;-68
2023/12/06 06:16:24;;;;;;;52.50;22.27;;;;;;;;;;5077011;28;20449;-67
2023/12/06 06:18:52;;;;;;;53.07;22.70;;;;;;;;;;5042347;28;20896;-67
2023/12/06 06:21:20;;;;;;;44.67;18.87;;;;;;;;;;5057437;28;20454;-67
2023/12/06 06:23:51;;;;;;;49.43;21.53;;;;;;;;;;5057655;28;20430;-68
2023/12/06 06:26:20;;;;;;;52.57;22.70;;;;;;;;;;5057356;28;20416;-67
2023/12/06 06:28:48;;;;;;;63.80;24.67;;;;;;;;;;5073123;28;20932;-68
2023/12/06 06:31:17;;;;;;;53.60;22.37;;;;;;;;;;5057020;28;20456;-67
2023/12/06 06:33:45;;;;;;;56.43;23.33;;;;;;;;;;5056920;28;20546;-67
2023/12/06 06:36:13;;;;;;;54.63;23.20;;;;;;;;;;5056787;28;20524;-66
2023/12/06 06:38:42;;;;;;;54.90;22.80;;;;;;;;;;5056600;28;20445;-67
2023/12/06 06:41:10;;;;;;;58.33;22.93;;;;;;;;;;5023130;28;20941;-66
2023/12/06 06:43:40;;;;;;;57.70;23.83;;;;;;;;;;5056905;28;20523;-65
2023/12/06 06:46:11;;;;;;;62.77;25.73;;;;;;;;;;5057170;28;20396;-66
2023/12/06 06:48:40;;;;;;;57.50;23.03;;;;;;;;;;5040427;28;20768;-66
2023/12/06 06:51:11;;;;;;;60.07;24.03;;;;;;;;;;5072912;28;20416;-66
2023/12/06 06:53:40;;;;;;;64.03;24.70;;;;;;;;;;5057225;28;20944;-66
2023/12/06 06:56:07;;;;;;;68.10;25.83;;;;;;;;;;5072954;28;20768;-66
2023/12/06 06:58:38;;;;;;;53.00;20.93;;;;;;;;;;5073029;28;20439;-66
2023/12/06 07:01:05;;;;;;;68.73;26.47;;;;;;;;;;5039391;28;20484;-68
2023/12/06 07:03:35;;;;;;;66.80;24.60;;;;;;;;;;5057306;28;20419;-66
2023/12/06 07:06:03;;;;;;;69.20;27.60;;;;;;;;;;5056858;28;20778;-66
2023/12/06 07:08:32;;;;;;;67.63;24.23;;;;;;;;;;5057345;28;20815;-66
2023/12/06 07:11:00;;;;;;;70.27;24.37;;;;;;;;;;5074509;28;20533;-66
2023/12/06 07:13:29;;;;;;;63.57;24.77;;;;;;;;;;5072897;28;20482;-65
2023/12/06 07:15:58;;;;;;;56.93;24.00;;;;;;;;;;5057242;28;20417;-67
2023/12/06 07:18:25;;;;;;;63.07;24.53;;;;;;;;;;5056535;28;20887;-65
2023/12/06 07:20:52;;;;;;;67.17;25.33;;;;;;;;;;5056474;28;20427;-64
2023/12/06 07:23:20;;;;;;;58.97;24.70;;;;;;;;;;5056410;28;20717;-67
2023/12/06 07:25:46;;;;;;;60.13;23.30;;;;;;;;;;5073861;28;20459;-67
2023/12/06 07:28:13;;;;;;;57.40;25.03;;;;;;;;;;5056085;28;20485;-64
2023/12/06 07:30:41;;;;;;;57.60;23.47;;;;;;;;;;5056160;28;20450;-66
2023/12/06 07:33:08;;;;;;;67.03;26.00;;;;;;;;;;5056325;28;20456;-66
2023/12/06 07:35:36;;;;;;;59.63;24.27;;;;;;;;;;5056719;28;20430;-67
2023/12/06 07:38:09;;;;;;;57.17;24.00;;;;;;;;;;5056343;28;20416;-66
2023/12/06 07:40:36;;;;;;;58.13;23.73;;;;;;;;;;5057054;28;20881;-67
2023/12/06 08:30:18;;;;;;;47.90;21.87;;;;;;;;;;5027377;28;20449;-67
2023/12/06 08:32:46;;;;;;;48.20;20.47;;;;;;;;;;5042477;28;20474;-66
2023/12/06 08:35:13;;;;;;;52.17;21.70;;;;;;;;;;5026179;28;20796;-66
2023/12/06 08:37:40;;;;;;;49.00;21.63;;;;;;;;;;5043034;28;20425;-66
2023/12/06 08:40:09;;;;;;;49.33;20.27;;;;;;;;;;5026348;28;20735;-66
2023/12/06 08:42:36;;;;;;;46.97;20.80;;;;;;;;;;5027565;28;20931;-66
2023/12/06 08:45:03;;;;;;;52.67;21.70;;;;;;;;;;5009967;28;20491;-66
2023/12/06 08:47:32;;;;;;;52.40;21.90;;;;;;;;;;5016943;28;20553;-66
2023/12/06 08:50:16;;;;;;;50.50;19.63;;;;;;;;;;5026881;28;20531;-67
2023/12/06 08:52:46;;;;;;;48.40;20.53;;;;;;;;;;5047251;28;20465;-67
2023/12/06 08:55:14;;;;;;;43.97;19.20;;;;;;;;;;5047205;28;20757;-66
2023/12/06 08:57:41;;;;;;;47.77;20.40;;;;;;;;;;5045924;28;20525;-68
2023/12/06 09:00:11;;;;;;;45.47;20.57;;;;;;;;;;5045280;28;20592;-66
2023/12/06 09:02:40;;;;;;;46.67;20.10;;;;;;;;;;5044811;28;20449;-68
2023/12/06 09:05:10;;;;;;;49.07;22.13;;;;;;;;;;5045720;28;20444;-66
2023/12/06 09:07:39;;;;;;;45.93;20.50;;;;;;;;;;5046852;28;20452;-68
2023/12/06 09:10:07;;;;;;;50.70;22.23;;;;;;;;;;5046922;28;20422;-68
2023/12/06 09:12:34;;;;;;;51.47;21.73;;;;;;;;;;5062105;28;20469;-68
2023/12/06 09:15:03;;;;;;;51.13;22.20;;;;;;;;;;5054560;28;20922;-67
2023/12/06 09:17:30;;;;;;;55.93;24.50;;;;;;;;;;5065624;28;20927;-68
2023/12/06 09:19:57;;;;;;;48.03;20.67;;;;;;;;;;5047693;28;20464;-68
2023/12/06 09:22:24;;;;;;;46.47;20.53;;;;;;;;;;5065526;28;20459;-69
2023/12/06 09:24:52;;;;;;;45.37;20.53;;;;;;;;;;5048824;28;20435;-68
2023/12/06 09:27:19;;;;;;;51.40;23.50;;;;;;;;;;5065083;28;20470;-68
2023/12/06 09:29:46;;;;;;;46.17;23.07;;;;;;;;;;5067037;28;20452;-65
2023/12/06 09:32:15;;;;;;;52.10;22.53;;;;;;;;;;5049010;28;20569;-67
2023/12/06 09:34:42;;;;;;;49.57;23.23;;;;;;;;;;5048022;28;20436;-68
2023/12/06 09:37:15;;;;;;;47.87;21.27;;;;;;;;;;5065358;28;20452;-67
2023/12/06 09:39:43;;;;;;;52.07;22.70;;;;;;;;;;5065002;28;20417;-67
2023/12/06 09:42:10;;;;;;;54.50;22.13;;;;;;;;;;5066684;28;20417;-68
2023/12/06 09:44:37;;;;;;;48.20;22.40;;;;;;;;;;5068200;28;20420;-66
2023/12/06 09:47:04;;;;;;;45.10;19.13;;;;;;;;;;5075564;28;20416;-66
2023/12/06 09:49:31;;;;;;;48.17;23.13;;;;;;;;;;5058608;28;20900;-66
2023/12/06 09:52:17;;;;;;;47.17;21.07;;;;;;;;;;5074381;28;20764;-65
2023/12/06 09:54:45;;;;;;;46.87;20.50;;;;;;;;;;5074751;28;20496;-66
2023/12/06 09:57:12;;;;;;;45.23;21.10;;;;;;;;;;5073303;28;20432;-67
2023/12/06 09:59:40;;;;;;;51.37;21.83;;;;;;;;;;5074846;28;20460;-68
2023/12/06 10:02:07;;;;;;;42.87;19.97;;;;;;;;;;5075050;28;20803;-66
2023/12/06 10:04:34;;;;;;;47.03;21.00;;;;;;;;;;5058400;28;20452;-67
2023/12/06 10:07:01;;;;;;;50.80;23.07;;;;;;;;;;5058185;28;20432;-67
2023/12/06 10:09:28;;;;;;;47.07;19.73;;;;;;;;;;5057850;28;20446;-68
2023/12/06 10:12:06;;;;;;;49.27;21.90;;;;;;;;;;5074421;28;20470;-67
2023/12/06 10:14:33;;;;;;;48.00;21.50;;;;;;;;;;5081418;28;20502;-67
2023/12/06 10:17:00;;;;;;;52.80;21.97;;;;;;;;;;5078145;28;20404;-68
2023/12/06 10:19:28;;;;;;;48.97;20.73;;;;;;;;;;5077827;28;20427;-67
2023/12/06 10:21:57;;;;;;;49.73;20.80;;;;;;;;;;5078404;28;20427;-66
2023/12/06 10:24:24;;;;;;;50.37;21.07;;;;;;;;;;5060981;28;20436;-66
2023/12/06 10:27:03;;;;;;;48.93;22.63;;;;;;;;;;5069885;28;21683;-66
2023/12/06 10:29:34;;;;;;;45.60;20.63;;;;;;;;;;5065439;28;20478;-67
2023/12/06 10:32:01;;;;;;;54.77;22.97;;;;;;;;;;5065252;28;20921;-67
2023/12/06 10:34:28;;;;;;;48.07;20.53;;;;;;;;;;5065254;28;20541;-66
2023/12/06 10:36:55;;;;;;;45.37;19.93;;;;;;;;;;5047057;28;20514;-66
2023/12/06 10:39:23;;;;;;;48.27;23.53;;;;;;;;;;5046847;28;20432;-66
2023/12/06 10:45:46;;;;;;;45.73;19.93;;;;;;;;;;5085136;28;20880;-66
2023/12/06 10:48:13;;;;;;;54.43;20.93;;;;;;;;;;5066611;28;20432;-66
2023/12/06 10:50:40;;;;;;;55.27;22.70;;;;;;;;;;5066622;28;21729;-65
2023/12/06 10:53:07;;;;;;;43.90;19.63;;;;;;;;;;5078973;28;20475;-66
2023/12/06 10:55:36;;;;;;;46.67;21.63;;;;;;;;;;5063231;28;20417;-67
2023/12/06 10:58:03;;;;;;;45.23;20.57;;;;;;;;;;5046534;28;20432;-66
2023/12/06 11:00:32;;;;;;;46.73;21.57;;;;;;;;;;5061826;28;20903;-66
2023/12/06 11:02:59;;;;;;;44.97;20.97;;;;;;;;;;5062800;28;20428;-66
2023/12/06 11:05:26;;;;;;;49.17;21.20;;;;;;;;;;5062913;28;20741;-66
2023/12/06 11:08:05;;;;;;;45.20;20.27;;;;;;;;;;5062814;28;21023;-65
2023/12/06 11:10:55;;;;;;;50.47;22.57;;;;;;;;;;5064453;28;20424;-65
2023/12/06 11:13:31;;;;;;;43.87;21.20;;;;;;;;;;5062530;28;20471;-65
2023/12/06 11:16:17;;;;;;;43.07;19.67;;;;;;;;;;5062735;28;20448;-66
2023/12/06 11:18:47;;;;;;;49.77;20.83;;;;;;;;;;5064525;28;20424;-67
2023/12/06 11:21:14;;;;;;;53.53;22.87;;;;;;;;;;5062909;28;20422;-67
2023/12/06 11:23:43;;;;;;;49.87;21.57;;;;;;;;;;5063074;28;20440;-66
2023/12/06 11:26:10;;;;;;;46.03;22.00;;;;;;;;;;5050159;28;20533;-65
2023/12/06 11:28:39;;;;;;;46.93;20.50;;;;;;;;;;5063009;28;20405;-67
2023/12/06 11:31:07;;;;;;;50.00;21.43;;;;;;;;;;5063289;28;20911;-66
2023/12/06 11:33:34;;;;;;;50.43;21.33;;;;;;;;;;5062921;28;20464;-68
2023/12/06 11:36:01;;;;;;;47.50;21.03;;;;;;;;;;5064798;28;20412;-68
2023/12/06 11:38:32;;;;;;;46.37;21.00;;;;;;;;;;5063503;28;20511;-68
2023/12/06 11:41:00;;;;;;;44.63;20.43;;;;;;;;;;5063322;28;20779;-68
2023/12/06 11:43:33;;;;;;;45.73;21.20;;;;;;;;;;5063330;28;20454;-68
2023/12/06 11:46:03;;;;;;;47.53;20.93;;;;;;;;;;5046340;28;20429;-66
2023/12/06 11:48:40;;;;;;;46.07;20.13;;;;;;;;;;5062741;28;20432;-67
2023/12/06 11:51:07;;;;;;;45.77;19.73;;;;;;;;;;5045816;28;20514;-67
2023/12/06 11:53:37;;;;;;;47.70;20.50;;;;;;;;;;5045741;28;20461;-66
2023/12/06 11:56:05;;;;;;;50.07;21.17;;;;;;;;;;5062684;28;20436;-65
2023/12/06 11:58:36;;;;;;;47.73;18.67;;;;;;;;;;5046641;28;20435;-67
2023/12/06 12:01:02;;;;;;;44.33;19.93;;;;;;;;;;5063941;28;20481;-66
2023/12/06 12:03:32;;;;;;;45.17;20.07;;;;;;;;;;5057899;28;20476;-67
2023/12/06 12:05:59;;;;;;;44.67;19.53;;;;;;;;;;5045832;28;20430;-67
2023/12/06 12:08:27;;;;;;;43.57;20.07;;;;;;;;;;5046089;28;20423;-67
2023/12/06 12:10:54;;;;;;;44.70;19.10;;;;;;;;;;5045824;28;20428;-67
2023/12/06 12:13:23;;;;;;;45.20;19.97;;;;;;;;;;5061865;28;20537;-66
2023/12/06 12:15:51;;;;;;;46.67;19.70;;;;;;;;;;5061873;28;20834;-68
2023/12/06 12:18:19;;;;;;;43.30;20.33;;;;;;;;;;5062276;28;20445;-68
2023/12/06 12:20:46;;;;;;;47.03;20.47;;;;;;;;;;5062294;28;20440;-68
2023/12/06 12:23:13;;;;;;;46.63;19.70;;;;;;;;;;5029881;28;20424;-65
2023/12/06 12:25:47;;;;;;;40.73;19.67;;;;;;;;;;5046046;28;20955;-67
2023/12/06 12:28:18;;;;;;;44.23;19.67;;;;;;;;;;5061710;28;20460;-68
2023/12/06 12:30:47;;;;;;;44.80;18.87;;;;;;;;;;5032877;28;20456;-67
2023/12/06 12:33:15;;;;;;;50.13;20.23;;;;;;;;;;5085166;28;20517;-68
2023/12/06 12:35:42;;;;;;;46.13;19.70;;;;;;;;;;5069242;28;20536;-67
2023/12/06 12:38:09;;;;;;;45.00;19.93;;;;;;;;;;5088084;28;20434;-65
2023/12/06 12:40:56;;;;;;;44.00;18.63;;;;;;;;;;5092962;28;20484;-64
2023/12/06 12:43:25;;;;;;;48.73;20.37;;;;;;;;;;5090706;28;20784;-66
2023/12/06 12:45:52;;;;;;;42.47;19.13;;;;;;;;;;5089862;28;20429;-68
2023/12/06 12:48:19;;;;;;;42.87;19.77;;;;;;;;;;5091332;28;20419;-67
2023/12/06 12:50:46;;;;;;;47.13;18.13;;;;;;;;;;5072397;28;20805;-67
2023/12/06 12:53:37;;;;;;;45.83;19.40;;;;;;;;;;5086725;28;20526;-67
2023/12/06 12:56:05;;;;;;;42.37;19.27;;;;;;;;;;5083235;28;20431;-67
2023/12/06 12:58:35;;;;;;;45.43;19.60;;;;;;;;;;5080513;28;20439;-67
2023/12/06 13:01:03;;;;;;;42.47;20.73;;;;;;;;;;5085393;28;20443;-68
2023/12/06 13:03:32;;;;;;;46.80;21.03;;;;;;;;;;5049315;28;20943;-67
2023/12/06 13:05:59;;;;;;;40.90;18.63;;;;;;;;;;5045253;28;20472;-68
2023/12/06 13:09:09;;;;;;;45.30;19.53;;;;;;;;;;5031454;28;20494;-68
2023/12/06 13:14:54;;;;;;;48.10;21.17;;;;;;;;;;5048418;28;20472;-67
2023/12/06 13:17:21;;;;;;;41.17;18.47;;;;;;;;;;5032367;28;20433;-67
2023/12/06 13:19:49;;;;;;;46.77;20.03;;;;;;;;;;5032055;28;20467;-66
2023/12/06 13:22:16;;;;;;;44.97;19.33;;;;;;;;;;5075094;28;20434;-67
2023/12/06 13:24:48;;;;;;;47.97;19.43;;;;;;;;;;5052483;28;20467;-67
2023/12/06 13:27:15;;;;;;;44.50;19.30;;;;;;;;;;5072115;28;20443;-68
2023/12/06 13:29:42;;;;;;;41.50;18.90;;;;;;;;;;5107306;28;20581;-67
2023/12/06 13:32:13;;;;;;;40.93;18.70;;;;;;;;;;5107255;28;20419;-65
2023/12/06 13:34:42;;;;;;;40.70;18.20;;;;;;;;;;5089486;28;20474;-65
2023/12/06 13:37:13;;;;;;;41.03;18.83;;;;;;;;;;5091484;28;20459;-65
2023/12/06 13:43:40;;;;;;;38.10;17.10;;;;;;;;;;5086626;28;20751;-66
2023/12/06 13:46:07;;;;;;;44.20;18.77;;;;;;;;;;5068815;28;20521;-67
2023/12/06 13:48:34;;;;;;;43.13;18.30;;;;;;;;;;5051835;28;20415;-67
2023/12/06 13:51:01;;;;;;;38.50;16.87;;;;;;;;;;5068282;28;20950;-65
2023/12/06 13:53:28;;;;;;;44.13;20.13;;;;;;;;;;5086375;28;20923;-66
2023/12/06 13:55:54;;;;;;;45.67;19.23;;;;;;;;;;5086431;28;20518;-65
2023/12/06 13:58:22;;;;;;;41.63;18.73;;;;;;;;;;5068125;28;20423;-68
2023/12/06 14:00:49;;;;;;;42.57;18.77;;;;;;;;;;5084671;28;20786;-65
2023/12/06 14:03:16;;;;;;;42.53;17.03;;;;;;;;;;5067933;28;20430;-66
2023/12/06 14:05:42;;;;;;;45.93;19.00;;;;;;;;;;5067779;28;20441;-65
2023/12/06 14:08:11;;;;;;;44.50;19.43;;;;;;;;;;5085995;28;20431;-66
2023/12/06 14:10:55;;;;;;;45.53;19.97;;;;;;;;;;5056774;28;20404;-65
2023/12/06 14:13:22;;;;;;;51.67;20.83;;;;;;;;;;5067776;28;20530;-65
2023/12/06 14:16:07;;;;;;;45.43;19.43;;;;;;;;;;5070471;28;20489;-65
2023/12/06 14:18:35;;;;;;;46.70;20.30;;;;;;;;;;5051207;28;20412;-65
2023/12/06 14:21:02;;;;;;;47.70;19.43;;;;;;;;;;5085718;28;21986;-65
2023/12/06 14:23:29;;;;;;;45.30;20.73;;;;;;;;;;5051409;28;20431;-65
2023/12/06 14:25:56;;;;;;;53.07;21.27;;;;;;;;;;5085734;28;20431;-65
2023/12/06 14:28:23;;;;;;;43.57;20.57;;;;;;;;;;5038959;28;20463;-65
2023/12/06 14:30:51;;;;;;;50.73;20.93;;;;;;;;;;5067688;28;20797;-65
2023/12/06 14:33:18;;;;;;;50.10;21.70;;;;;;;;;;5085640;28;20496;-66
2023/12/06 14:36:04;;;;;;;48.47;20.93;;;;;;;;;;5070413;28;20767;-68
2023/12/06 14:38:34;;;;;;;49.90;20.57;;;;;;;;;;5067696;28;20445;-68
2023/12/06 14:41:02;;;;;;;49.13;21.00;;;;;;;;;;5085699;28;20430;-67
2023/12/06 14:43:29;;;;;;;46.17;21.53;;;;;;;;;;5085482;28;20424;-67
2023/12/06 14:45:58;;;;;;;50.00;21.53;;;;;;;;;;5085231;28;20465;-66
2023/12/06 14:48:25;;;;;;;51.43;21.80;;;;;;;;;;5085415;28;20422;-66
2023/12/06 14:50:53;;;;;;;55.67;23.47;;;;;;;;;;5067744;28;20763;-67
2023/12/06 14:53:19;;;;;;;45.30;20.97;;;;;;;;;;5051245;28;20419;-67
2023/12/06 14:55:47;;;;;;;48.93;21.07;;;;;;;;;;5067595;28;20894;-67
2023/12/06 14:58:14;;;;;;;49.03;22.33;;;;;;;;;;5051052;28;20467;-67
2023/12/06 15:00:46;;;;;;;52.40;22.30;;;;;;;;;;5049398;28;20632;-66
2023/12/06 15:03:14;;;;;;;44.87;21.27;;;;;;;;;;5051209;28;20425;-67
2023/12/06 15:05:43;;;;;;;49.20;21.67;;;;;;;;;;5066921;28;20483;-66
2023/12/06 15:08:10;;;;;;;50.20;22.33;;;;;;;;;;5066486;28;20438;-66
2023/12/06 15:10:37;;;;;;;51.50;23.30;;;;;;;;;;5049765;28;20435;-66
2023/12/06 15:13:04;;;;;;;45.50;21.23;;;;;;;;;;5050166;28;20440;-66
2023/12/06 15:15:31;;;;;;;57.43;23.20;;;;;;;;;;5084472;28;20465;-66
2023/12/06 15:17:59;;;;;;;51.23;24.20;;;;;;;;;;5084753;28;20903;-66
2023/12/06 15:20:26;;;;;;;52.77;24.13;;;;;;;;;;5066055;28;20467;-66
2023/12/06 15:22:55;;;;;;;50.77;22.57;;;;;;;;;;5084892;28;20466;-66
2023/12/06 15:25:22;;;;;;;42.63;20.00;;;;;;;;;;5066960;28;20485;-67
2023/12/06 15:27:48;;;;;;;46.80;20.37;;;;;;;;;;5073943;28;20478;-66
2023/12/06 15:30:16;;;;;;;48.20;21.80;;;;;;;;;;5066675;28;20439;-66
2023/12/06 15:32:44;;;;;;;54.73;24.10;;;;;;;;;;5066562;28;20819;-68
2023/12/06 15:35:11;;;;;;;62.37;26.13;;;;;;;;;;5066428;28;20917;-67
2023/12/06 15:37:38;;;;;;;54.40;22.37;;;;;;;;;;5048535;28;20448;-66
2023/12/06 15:40:10;;;;;;;44.70;21.40;;;;;;;;;;5066923;28;20502;-66
2023/12/06 15:42:38;;;;;;;49.30;20.97;;;;;;;;;;5084115;28;20898;-66
2023/12/06 15:45:07;;;;;;;42.77;21.07;;;;;;;;;;5082717;28;20429;-68
2023/12/06 15:47:34;;;;;;;44.47;20.70;;;;;;;;;;5073538;28;20441;-67
2023/12/06 15:50:03;;;;;;;39.23;18.83;;;;;;;;;;5064308;28;20412;-67
2023/12/06 15:52:31;;;;;;;47.10;22.00;;;;;;;;;;5037868;28;20933;-65
2023/12/06 15:54:59;;;;;;;44.07;21.17;;;;;;;;;;5066207;28;20491;-65
2023/12/06 16:01:19;;;;;;;43.67;21.37;;;;;;;;;;5086210;28;20445;-65